Time;durP1;ratioP1;P1;durP2;ratioP2;P2;SDS_P1;SDS_P2;PMS_P1;PMS_P2;Temp;Humidity;BMP_temperature;BMP_pressure;BME280_temperature;BME280_humidity;BME280_pressure;Samples;Min_cycle;Max_cycle;Signal;HPM_P1;HPM_P2
2023/09/07 00:01:06;;;;;;;9.20;5.00;;;12.80;41.10;;;;;;5129958;27;46737;-79
2023/09/07 00:03:32;;;;;;;6.20;4.10;;;12.70;39.40;;;;;;5125655;27;46401;-79
2023/09/07 00:05:57;;;;;;;7.90;5.40;;;12.60;40.90;;;;;;5128586;27;46674;-78
2023/09/07 00:08:25;;;;;;;7.60;4.93;;;12.60;40.80;;;;;;5128512;27;46474;-77
2023/09/07 00:10:51;;;;;;;16.00;5.47;;;12.50;40.70;;;;;;5131271;27;46698;-79
2023/09/07 00:13:16;;;;;;;7.30;5.03;;;12.50;39.90;;;;;;5129868;27;46949;-79
2023/09/07 00:15:42;;;;;;;8.80;5.00;;;12.40;40.80;;;;;;5127803;27;46547;-80
2023/09/07 00:18:08;;;;;;;7.40;4.53;;;12.40;41.20;;;;;;5130083;27;46665;-79
2023/09/07 00:20:34;;;;;;;7.97;5.40;;;12.40;41.30;;;;;;5130709;27;46708;-79
2023/09/07 00:23:00;;;;;;;6.53;4.60;;;12.50;41.40;;;;;;5127413;27;46467;-79
2023/09/07 00:25:26;;;;;;;8.70;4.60;;;12.40;41.30;;;;;;5126862;27;46698;-78
2023/09/07 00:27:52;;;;;;;10.90;5.23;;;12.40;41.30;;;;;;5130515;27;46480;-77
2023/09/07 00:30:17;;;;;;;9.23;4.53;;;12.40;41.20;;;;;;5115009;27;46555;-78
2023/09/07 00:32:43;;;;;;;8.57;5.10;;;12.40;41.20;;;;;;5132854;27;46389;-77
2023/09/07 00:35:09;;;;;;;8.40;4.83;;;12.40;41.10;;;;;;5130965;27;46426;-79
2023/09/07 00:37:35;;;;;;;17.00;4.93;;;12.40;40.80;;;;;;5131743;27;46362;-78
2023/09/07 00:40:00;;;;;;;6.67;4.67;;;12.40;40.70;;;;;;5133167;27;46338;-79
2023/09/07 00:42:26;;;;;;;7.50;4.93;;;12.40;40.70;;;;;;5134220;27;46411;-79
2023/09/07 00:44:51;;;;;;;7.70;5.03;;;12.40;40.70;;;;;;5137084;27;45877;-81
2023/09/07 00:47:18;;;;;;;6.93;4.50;;;12.50;41.20;;;;;;5133491;27;46443;-80
2023/09/07 00:49:44;;;;;;;6.03;3.93;;;12.30;41.30;;;;;;5131360;27;46402;-79
2023/09/07 00:52:10;;;;;;;8.63;4.83;;;12.20;41.50;;;;;;5129707;27;47297;-79
2023/09/07 00:54:38;;;;;;;6.63;4.43;;;12.20;41.90;;;;;;5120281;27;46852;-78
2023/09/07 00:57:04;;;;;;;7.67;4.80;;;12.20;42.20;;;;;;5123970;27;46526;-78
2023/09/07 00:59:31;;;;;;;7.77;4.87;;;12.10;42.40;;;;;;5124786;27;46500;-76
2023/09/07 01:01:57;;;;;;;9.90;5.03;;;12.00;42.50;;;;;;5123842;27;46889;-78
2023/09/07 01:04:22;;;;;;;11.63;5.13;;;12.00;42.70;;;;;;5106307;27;46495;-78
2023/09/07 01:06:56;;;;;;;8.77;4.63;;;11.90;42.70;;;;;;5125326;27;46373;-79
2023/09/07 01:09:26;;;;;;;7.70;4.53;;;11.90;42.80;;;;;;5127217;27;46482;-79
2023/09/07 01:11:52;;;;;;;6.07;4.50;;;11.80;42.70;;;;;;5125418;27;46496;-78
2023/09/07 01:14:18;;;;;;;5.80;4.37;;;11.80;43.00;;;;;;5124822;27;46455;-78
2023/09/07 01:16:44;;;;;;;10.60;5.50;;;11.90;43.20;;;;;;5123715;27;46806;-80
2023/09/07 01:19:10;;;;;;;10.17;4.80;;;11.80;43.20;;;;;;5127599;27;46891;-78
2023/09/07 01:21:37;;;;;;;8.43;5.00;;;11.80;42.10;;;;;;5123545;27;46405;-78
2023/09/07 01:24:11;;;;;;;7.30;4.67;;;11.90;43.20;;;;;;5126463;27;46420;-77
2023/09/07 01:26:40;;;;;;;7.67;5.43;;;11.90;43.00;;;;;;5124791;27;46529;-77
2023/09/07 01:29:06;;;;;;;7.03;4.80;;;11.80;42.90;;;;;;5129245;27;46649;-77
2023/09/07 01:31:38;;;;;;;6.57;4.67;;;11.70;42.00;;;;;;5129015;27;47296;-77
2023/09/07 01:34:06;;;;;;;7.73;4.80;;;11.80;43.20;;;;;;5132366;27;46516;-78
2023/09/07 01:36:32;;;;;;;8.67;4.93;;;11.70;43.20;;;;;;5128771;27;46107;-78
2023/09/07 01:38:58;;;;;;;9.10;4.87;;;11.70;43.20;;;;;;5130423;27;46440;-79
2023/09/07 01:41:23;;;;;;;7.37;5.17;;;11.60;43.20;;;;;;5128678;27;46428;-78
2023/09/07 01:43:49;;;;;;;7.53;5.07;;;11.60;43.40;;;;;;5127392;27;46115;-79
2023/09/07 01:46:14;;;;;;;7.40;5.43;;;11.80;43.60;;;;;;5131445;27;46419;-79
2023/09/07 01:48:42;;;;;;;6.97;5.10;;;11.60;43.40;;;;;;5125843;27;46338;-77
2023/09/07 01:51:07;;;;;;;7.47;5.33;;;11.60;43.50;;;;;;5128063;27;46714;-78
2023/09/07 01:53:33;;;;;;;7.97;5.50;;;11.60;42.30;;;;;;5127883;27;46923;-78
2023/09/07 01:55:59;;;;;;;16.93;5.77;;;11.60;44.40;;;;;;5126981;27;46440;-79
2023/09/07 01:58:25;;;;;;;19.77;5.57;;;11.70;43.30;;;;;;5128873;27;46638;-79
2023/09/07 02:00:52;;;;;;;12.17;5.90;;;11.70;43.20;;;;;;5128322;27;47073;-78
2023/09/07 02:03:17;;;;;;;7.33;5.50;;;11.70;42.20;;;;;;5127158;27;46847;-79
2023/09/07 02:05:45;;;;;;;8.60;5.90;;;11.70;43.20;;;;;;5124678;27;46501;-77
2023/09/07 02:08:11;;;;;;;9.10;5.83;;;11.70;43.20;;;;;;5129403;27;46565;-78
2023/09/07 02:10:37;;;;;;;9.50;5.67;;;11.60;43.10;;;;;;5131775;27;47269;-78
2023/09/07 02:13:03;;;;;;;8.90;6.20;;;11.60;42.40;;;;;;5131034;27;46378;-79
2023/09/07 02:15:29;;;;;;;13.60;6.47;;;11.60;43.40;;;;;;5129122;27;46454;-78
2023/09/07 02:17:55;;;;;;;10.17;6.97;;;11.60;43.60;;;;;;5131351;27;47663;-79
2023/09/07 02:20:20;;;;;;;9.87;6.90;;;11.50;43.80;;;;;;5130850;27;46760;-79
2023/09/07 02:22:46;;;;;;;9.10;6.43;;;11.50;44.30;;;;;;5130527;27;46560;-78
2023/09/07 02:25:11;;;;;;;14.80;6.73;;;11.40;44.60;;;;;;5132889;27;46733;-79
2023/09/07 02:27:38;;;;;;;10.37;6.10;;;11.30;44.80;;;;;;5130838;27;46709;-78
2023/09/07 02:30:04;;;;;;;8.30;6.00;;;11.30;45.10;;;;;;5126492;27;47132;-78
2023/09/07 02:32:31;;;;;;;7.90;6.10;;;11.40;45.10;;;;;;5126462;27;46835;-78
2023/09/07 02:34:57;;;;;;;8.20;6.17;;;11.50;45.00;;;;;;5128107;27;47039;-78
2023/09/07 02:37:23;;;;;;;9.70;6.10;;;11.40;45.00;;;;;;5128840;27;46235;-78
2023/09/07 02:39:48;;;;;;;10.40;6.30;;;11.40;45.00;;;;;;5127381;27;46697;-78
2023/09/07 02:42:14;;;;;;;8.67;5.27;;;11.40;45.00;;;;;;5126225;27;46576;-78
2023/09/07 02:44:39;;;;;;;11.70;6.70;;;11.40;45.00;;;;;;5126665;27;45939;-78
2023/09/07 02:47:05;;;;;;;10.07;6.60;;;11.50;45.00;;;;;;5127880;27;46474;-78
2023/09/07 02:49:31;;;;;;;14.13;7.00;;;11.40;44.90;;;;;;5128732;27;46606;-79
2023/09/07 02:51:57;;;;;;;10.03;5.60;;;11.40;44.90;;;;;;5110907;27;46523;-78
2023/09/07 02:54:23;;;;;;;10.03;6.73;;;11.40;45.00;;;;;;5133375;27;46407;-81
2023/09/07 02:56:49;;;;;;;9.50;6.80;;;11.40;45.00;;;;;;5102582;27;46734;-81
2023/09/07 02:59:14;;;;;;;10.70;6.27;;;11.70;45.50;;;;;;5108370;27;48750;-81
2023/09/07 03:01:40;;;;;;;8.73;6.60;;;11.30;44.50;;;;;;5123564;27;46492;-80
2023/09/07 03:04:07;;;;;;;10.83;7.07;;;11.30;45.60;;;;;;5118199;27;46768;-80
2023/09/07 03:06:32;;;;;;;11.13;7.20;;;11.30;45.70;;;;;;5128150;27;46777;-79
2023/09/07 03:08:58;;;;;;;8.60;6.70;;;11.30;45.90;;;;;;5127084;27;47143;-79
2023/09/07 03:11:24;;;;;;;9.67;6.80;;;11.30;45.90;;;;;;5128289;27;46775;-79
2023/09/07 03:13:49;;;;;;;9.57;7.07;;;11.30;44.80;;;;;;5110227;27;46822;-79
2023/09/07 03:16:15;;;;;;;11.37;6.93;;;11.30;45.90;;;;;;5110571;27;46735;-79
2023/09/07 03:18:41;;;;;;;14.43;6.70;;;11.30;46.00;;;;;;5131481;27;46437;-80
2023/09/07 03:21:06;;;;;;;8.17;6.13;;;11.30;46.00;;;;;;5114841;27;46366;-80
2023/09/07 03:23:33;;;;;;;10.53;7.03;;;11.30;45.00;;;;;;5110256;27;46798;-80
2023/09/07 03:25:59;;;;;;;10.83;6.83;;;11.30;46.10;;;;;;5129398;27;46187;-79
2023/09/07 03:28:25;;;;;;;10.70;7.10;;;11.30;46.20;;;;;;5129878;27;48217;-79
2023/09/07 03:30:51;;;;;;;9.87;6.63;;;11.20;46.30;;;;;;5127164;27;46973;-80
2023/09/07 03:33:17;;;;;;;8.13;6.00;;;11.20;45.60;;;;;;5122575;27;47402;-80
2023/09/07 03:35:43;;;;;;;10.47;6.97;;;11.20;46.80;;;;;;5126936;27;46313;-80
2023/09/07 03:38:08;;;;;;;10.00;5.70;;;11.20;47.00;;;;;;5126000;27;46985;-82
2023/09/07 03:40:34;;;;;;;10.10;6.50;;;11.10;47.10;;;;;;5127913;27;46824;-81
2023/09/07 03:42:59;;;;;;;8.33;6.10;;;11.20;47.20;;;;;;5127548;27;46760;-81
2023/09/07 03:45:25;;;;;;;12.00;7.40;;;11.30;47.60;;;;;;5127612;27;46487;-82
2023/09/07 03:47:51;;;;;;;11.20;7.20;;;11.10;47.40;;;;;;5130715;27;46773;-80
2023/09/07 03:50:16;;;;;;;8.63;6.10;;;11.10;47.40;;;;;;5130277;27;46423;-80
2023/09/07 03:52:42;;;;;;;9.50;5.83;;;11.00;47.50;;;;;;5129228;27;46479;-79
2023/09/07 03:55:08;;;;;;;9.10;6.23;;;11.00;47.70;;;;;;5114079;27;46464;-80
2023/09/07 03:57:33;;;;;;;10.10;5.77;;;10.90;47.90;;;;;;5127442;27;47227;-78
2023/09/07 04:00:00;;;;;;;7.50;5.40;;;10.90;48.20;;;;;;5130549;27;46382;-81
2023/09/07 04:02:25;;;;;;;15.53;6.00;;;10.90;48.30;;;;;;5129222;27;46436;-79
2023/09/07 04:04:53;;;;;;;15.03;7.43;;;10.90;48.50;;;;;;5130790;27;46709;-80
2023/09/07 04:07:19;;;;;;;11.30;6.67;;;10.90;48.40;;;;;;5128774;27;46927;-79
2023/09/07 04:09:45;;;;;;;11.53;7.97;;;10.90;48.30;;;;;;5129013;27;46572;-81
2023/09/07 04:12:10;;;;;;;14.33;7.47;;;10.90;48.20;;;;;;5132436;27;46700;-81
2023/09/07 04:14:36;;;;;;;13.63;8.30;;;10.90;48.10;;;;;;5131474;27;46418;-80
2023/09/07 04:17:02;;;;;;;14.63;7.57;;;11.20;48.30;;;;;;5128902;27;46430;-78
2023/09/07 04:19:28;;;;;;;13.03;8.70;;;11.00;48.10;;;;;;5126930;27;46475;-81
2023/09/07 04:21:53;;;;;;;12.73;8.40;;;11.00;48.00;;;;;;5131955;27;45842;-80
2023/09/07 04:24:19;;;;;;;24.90;8.50;;;11.10;48.10;;;;;;5129601;27;46386;-80
2023/09/07 04:26:45;;;;;;;13.47;8.70;;;11.10;48.10;;;;;;5129598;27;46273;-80
2023/09/07 04:29:12;;;;;;;13.33;7.73;;;11.40;48.40;;;;;;5129933;27;46453;-80
2023/09/07 04:31:38;;;;;;;11.70;7.70;;;11.10;47.20;;;;;;5128629;27;46476;-81
2023/09/07 04:34:03;;;;;;;11.03;6.17;;;11.10;48.10;;;;;;5129587;27;46806;-80
2023/09/07 04:36:29;;;;;;;12.30;6.10;;;11.10;48.10;;;;;;5109806;27;47129;-80
2023/09/07 04:38:55;;;;;;;11.23;6.50;;;11.10;48.30;;;;;;5130271;27;46721;-79
2023/09/07 04:41:20;;;;;;;12.83;5.40;;;11.00;48.40;;;;;;5130839;27;46518;-80
2023/09/07 04:43:46;;;;;;;9.23;5.40;;;10.90;47.70;;;;;;5130353;27;46939;-80
2023/09/07 04:46:12;;;;;;;8.70;5.90;;;10.80;49.00;;;;;;5130452;27;47273;-81
2023/09/07 04:48:40;;;;;;;10.13;6.47;;;10.70;49.40;;;;;;5110610;27;46525;-81
2023/09/07 04:51:07;;;;;;;13.80;5.97;;;10.70;49.80;;;;;;5127157;27;47106;-81
2023/09/07 04:53:34;;;;;;;9.03;5.57;;;10.70;49.00;;;;;;5128987;27;46488;-81
2023/09/07 04:56:01;;;;;;;9.03;5.90;;;10.60;50.00;;;;;;5125677;27;46468;-81
2023/09/07 04:58:27;;;;;;;8.03;5.60;;;10.60;50.20;;;;;;5128278;27;46400;-80
2023/09/07 05:00:53;;;;;;;8.40;5.30;;;10.60;50.30;;;;;;5127683;27;46403;-80
2023/09/07 05:03:19;;;;;;;8.63;5.90;;;10.50;49.40;;;;;;5127474;27;46329;-80
2023/09/07 05:05:45;;;;;;;10.40;6.80;;;10.60;50.40;;;;;;5127701;27;46428;-80
2023/09/07 05:08:11;;;;;;;10.27;6.70;;;10.60;50.10;;;;;;5130094;27;46456;-80
2023/09/07 05:10:37;;;;;;;14.03;7.43;;;10.70;50.00;;;;;;5129986;27;46489;-80
2023/09/07 05:13:03;;;;;;;8.73;5.87;;;10.70;48.70;;;;;;5128362;27;46007;-81
2023/09/07 05:15:29;;;;;;;11.23;6.77;;;10.70;49.70;;;;;;5128285;27;47520;-80
2023/09/07 05:17:55;;;;;;;18.77;7.33;;;10.70;49.70;;;;;;5126533;27;46628;-79
2023/09/07 05:20:21;;;;;;;13.00;7.43;;;10.80;49.50;;;;;;5129921;27;46767;-80
2023/09/07 05:22:47;;;;;;;9.40;6.70;;;11.00;48.10;;;;;;5127666;27;46567;-80
2023/09/07 05:25:13;;;;;;;14.63;9.07;;;11.00;48.80;;;;;;5128140;27;46673;-79
2023/09/07 05:27:39;;;;;;;12.10;8.40;;;11.30;47.80;;;;;;5127877;27;46532;-80
2023/09/07 05:30:06;;;;;;;10.60;5.73;;;11.90;47.70;;;;;;5128829;27;46456;-79
2023/09/07 05:32:31;;;;;;;14.40;5.60;;;13.00;48.30;;;;;;5128448;27;46795;-80
2023/09/07 05:34:57;;;;;;;7.77;5.50;;;13.30;49.40;;;;;;5127234;27;47363;-79
2023/09/07 05:37:22;;;;;;;14.33;5.40;;;13.90;48.60;;;;;;5129672;27;46708;-80
2023/09/07 05:39:51;;;;;;;7.80;5.07;;;14.60;47.30;;;;;;5126746;27;45867;-78
2023/09/07 05:42:17;;;;;;;10.07;4.90;;;15.50;43.30;;;;;;5126919;27;46550;-80
2023/09/07 05:44:42;;;;;;;10.00;6.03;;;15.70;43.70;;;;;;5126360;27;46414;-80
2023/09/07 05:47:08;;;;;;;10.33;4.93;;;16.20;42.60;;;;;;5127031;27;46513;-81
2023/09/07 05:49:33;;;;;;;8.90;4.70;;;16.70;41.40;;;;;;5130996;27;46502;-80
2023/09/07 05:51:59;;;;;;;9.10;5.30;;;17.40;37.60;;;;;;5125230;27;46535;-80
2023/09/07 05:54:24;;;;;;;7.37;5.00;;;17.50;38.30;;;;;;5128857;27;46711;-79
2023/09/07 05:56:50;;;;;;;7.00;4.70;;;18.00;36.80;;;;;;5129668;27;45796;-78
2023/09/07 05:59:15;;;;;;;7.90;5.43;;;18.10;35.00;;;;;;5126687;27;46666;-83
2023/09/07 06:01:41;;;;;;;13.20;5.67;;;18.30;30.00;;;;;;5107296;27;46647;-81
2023/09/07 06:04:07;;;;;;;10.23;5.80;;;18.70;30.90;;;;;;5128829;27;46793;-78
2023/09/07 06:06:33;;;;;;;9.70;6.50;;;18.20;29.50;;;;;;5111798;27;46761;-81
2023/09/07 06:08:59;;;;;;;9.53;6.50;;;17.60;29.90;;;;;;5126239;27;46513;-80
2023/09/07 06:11:25;;;;;;;11.80;6.63;;;17.30;31.10;;;;;;5125614;27;46556;-79
2023/09/07 06:13:51;;;;;;;8.67;6.00;;;16.80;30.00;;;;;;5126091;27;46504;-78
2023/09/07 06:16:16;;;;;;;11.70;6.50;;;16.70;32.60;;;;;;5125945;27;46987;-79
2023/09/07 06:18:42;;;;;;;10.30;5.50;;;16.90;34.30;;;;;;5128569;27;46772;-80
2023/09/07 06:21:08;;;;;;;9.67;6.50;;;17.30;31.60;;;;;;5127973;27;46431;-81
2023/09/07 06:23:33;;;;;;;12.40;6.30;;;17.80;28.10;;;;;;5127213;27;47200;-80
2023/09/07 06:26:00;;;;;;;9.27;6.53;;;17.70;29.30;;;;;;5123664;27;46443;-80
2023/09/07 06:28:26;;;;;;;11.07;7.63;;;18.00;30.30;;;;;;5127238;27;46815;-79
2023/09/07 06:30:52;;;;;;;12.63;7.70;;;17.20;30.30;;;;;;5127225;27;46790;-78
2023/09/07 06:33:18;;;;;;;15.73;7.50;;;17.20;30.30;;;;;;5111858;27;47483;-81
2023/09/07 06:35:43;;;;;;;10.20;7.67;;;17.20;31.50;;;;;;5126359;27;46724;-80
2023/09/07 06:38:09;;;;;;;15.53;7.73;;;17.00;31.30;;;;;;5110669;27;46700;-80
2023/09/07 06:40:35;;;;;;;14.77;8.90;;;17.10;31.50;;;;;;5126376;27;46630;-81
2023/09/07 06:43:04;;;;;;;16.50;9.00;;;17.20;30.60;;;;;;5126214;27;47040;-81
2023/09/07 06:45:34;;;;;;;16.73;8.33;;;17.90;32.20;;;;;;5124519;27;46470;-80
2023/09/07 06:47:59;;;;;;;13.13;9.53;;;17.40;31.60;;;;;;5125117;27;46508;-81
2023/09/07 06:50:25;;;;;;;12.97;9.30;;;17.30;32.20;;;;;;5126409;27;46742;-79
2023/09/07 06:52:51;;;;;;;16.57;9.30;;;17.40;31.90;;;;;;5106547;27;47102;-81
2023/09/07 06:55:17;;;;;;;19.83;9.93;;;17.40;32.90;;;;;;5125918;27;46386;-80
2023/09/07 06:57:42;;;;;;;13.63;10.10;;;17.60;33.30;;;;;;5124214;27;46763;-81
2023/09/07 07:00:08;;;;;;;15.87;9.83;;;17.60;33.70;;;;;;5127116;27;46475;-81
2023/09/07 07:02:34;;;;;;;20.50;10.17;;;17.70;32.60;;;;;;5126634;27;47274;-79
2023/09/07 07:05:00;;;;;;;12.63;10.00;;;17.80;33.80;;;;;;5125174;27;45833;-80
2023/09/07 07:07:25;;;;;;;15.07;10.80;;;17.80;33.70;;;;;;5110154;27;46432;-80
2023/09/07 07:09:52;;;;;;;15.87;9.80;;;18.50;33.90;;;;;;5126247;27;46715;-80
2023/09/07 07:12:18;;;;;;;17.93;12.10;;;18.40;31.50;;;;;;5125470;27;46458;-80
2023/09/07 07:14:44;;;;;;;22.13;11.83;;;18.50;32.70;;;;;;5128755;27;46714;-81
2023/09/07 07:17:09;;;;;;;22.93;10.70;;;18.70;32.90;;;;;;5110479;27;46470;-82
2023/09/07 07:19:35;;;;;;;15.93;11.70;;;18.70;32.90;;;;;;5125902;27;46654;-81
2023/09/07 07:22:01;;;;;;;15.63;9.53;;;18.80;31.90;;;;;;5127240;27;47110;-80
2023/09/07 07:24:26;;;;;;;18.43;11.47;;;18.90;33.10;;;;;;5128084;27;47468;-81
2023/09/07 07:26:52;;;;;;;18.47;10.67;;;19.00;33.20;;;;;;5111297;27;46755;-82
2023/09/07 07:29:18;;;;;;;14.80;10.97;;;19.10;33.30;;;;;;5125651;27;46918;-80
2023/09/07 07:31:43;;;;;;;14.30;9.53;;;19.00;32.40;;;;;;5108919;27;47550;-82
2023/09/07 07:34:09;;;;;;;18.67;10.43;;;19.00;33.20;;;;;;5126188;27;45811;-81
2023/09/07 07:36:35;;;;;;;14.87;11.20;;;19.10;33.30;;;;;;5125451;27;46521;-81
2023/09/07 07:39:03;;;;;;;18.03;10.83;;;19.30;33.50;;;;;;5126309;27;46632;-83
2023/09/07 07:41:28;;;;;;;27.70;15.03;;;19.50;33.30;;;;;;5128319;27;46770;-79
2023/09/07 07:43:54;;;;;;;15.53;10.60;;;19.60;32.10;;;;;;5128395;27;46551;-81
2023/09/07 07:46:19;;;;;;;17.20;11.70;;;19.70;32.90;;;;;;5131525;27;46451;-80
2023/09/07 07:48:45;;;;;;;21.93;12.07;;;19.80;32.70;;;;;;5110244;27;46857;-80
2023/09/07 07:51:11;;;;;;;20.73;11.00;;;19.80;32.90;;;;;;5128625;27;47628;-83
2023/09/07 07:53:36;;;;;;;21.00;12.33;;;19.80;31.70;;;;;;5128948;27;46506;-80
2023/09/07 07:56:03;;;;;;;20.90;11.53;;;20.00;32.70;;;;;;5126919;27;46472;-80
2023/09/07 07:58:28;;;;;;;21.43;10.30;;;19.90;33.00;;;;;;5129498;27;46453;-79
2023/09/07 08:00:57;;;;;;;12.63;10.57;;;19.90;33.10;;;;;;5130941;27;47098;-79
2023/09/07 08:03:23;;;;;;;14.10;9.93;;;20.10;31.80;;;;;;5127855;27;46559;-81
2023/09/07 08:05:49;;;;;;;14.63;9.50;;;20.00;32.80;;;;;;5129494;27;46762;-80
2023/09/07 08:08:14;;;;;;;15.30;10.90;;;20.20;32.70;;;;;;5128794;27;46507;-80
2023/09/07 08:10:41;;;;;;;15.63;10.90;;;20.30;32.60;;;;;;5130367;27;46500;-81
2023/09/07 08:13:07;;;;;;;14.50;11.00;;;20.30;31.20;;;;;;5129116;27;45951;-79
2023/09/07 08:15:33;;;;;;;14.90;10.90;;;20.30;32.50;;;;;;5111088;27;46687;-82
2023/09/07 08:17:59;;;;;;;15.47;11.37;;;20.50;31.50;;;;;;5129575;27;46510;-77
2023/09/07 08:20:26;;;;;;;19.57;10.80;;;20.50;32.40;;;;;;5128215;27;46465;-80
2023/09/07 08:22:52;;;;;;;17.13;11.40;;;20.50;31.20;;;;;;5130735;27;46524;-80
2023/09/07 08:25:18;;;;;;;21.13;10.90;;;20.70;32.50;;;;;;5128302;27;46767;-78
2023/09/07 08:27:45;;;;;;;19.77;12.83;;;20.60;31.90;;;;;;5133497;27;45820;-80
2023/09/07 08:30:17;;;;;;;13.57;10.13;;;20.70;31.90;;;;;;5130118;27;46865;-80
2023/09/07 08:32:43;;;;;;;19.87;11.60;;;20.80;30.50;;;;;;5128738;27;47009;-80
2023/09/07 08:35:12;;;;;;;12.93;9.97;;;20.90;31.60;;;;;;5128981;27;46495;-80
2023/09/07 08:37:41;;;;;;;13.00;9.80;;;20.80;31.60;;;;;;5128976;27;46428;-81
2023/09/07 08:40:08;;;;;;;15.17;11.03;;;20.80;31.60;;;;;;5126616;27;47130;-80
2023/09/07 08:42:39;;;;;;;16.80;10.13;;;21.00;30.20;;;;;;5130069;27;46531;-81
2023/09/07 08:45:07;;;;;;;16.30;10.03;;;21.00;31.20;;;;;;5127409;27;46982;-77
2023/09/07 08:47:35;;;;;;;11.97;9.23;;;21.10;30.70;;;;;;5129142;27;47016;-80
2023/09/07 08:50:02;;;;;;;15.50;10.30;;;21.20;30.60;;;;;;5126401;27;46573;-79
2023/09/07 08:52:28;;;;;;;18.87;9.67;;;21.40;29.50;;;;;;5129098;27;46428;-79
2023/09/07 08:54:55;;;;;;;15.47;9.80;;;21.50;30.30;;;;;;5130086;27;46700;-79
2023/09/07 08:57:22;;;;;;;14.43;9.57;;;21.50;30.00;;;;;;5111725;27;46299;-81
2023/09/07 08:59:49;;;;;;;16.20;10.67;;;21.60;30.10;;;;;;5129350;27;46615;-79
2023/09/07 09:02:16;;;;;;;14.07;9.80;;;21.50;29.30;;;;;;5128531;27;46870;-80
2023/09/07 09:04:42;;;;;;;14.20;9.97;;;21.40;30.00;;;;;;5131254;27;47579;-80
2023/09/07 09:07:07;;;;;;;14.97;10.67;;;21.80;31.00;;;;;;5125884;27;45977;-80
2023/09/07 09:09:33;;;;;;;14.37;8.97;;;21.50;30.40;;;;;;5128700;27;46189;-80
2023/09/07 09:12:09;;;;;;;14.47;9.67;;;21.80;28.60;;;;;;5125871;27;46760;-79
2023/09/07 09:14:35;;;;;;;13.93;10.47;;;21.80;30.10;;;;;;5127412;27;46700;-80
2023/09/07 09:17:00;;;;;;;10.40;7.40;;;21.70;29.10;;;;;;5127774;27;46351;-79
2023/09/07 09:19:36;;;;;;;15.47;9.40;;;22.60;29.70;;;;;;5128586;27;46370;-79
2023/09/07 09:22:03;;;;;;;13.67;8.50;;;22.10;27.50;;;;;;5129417;27;46756;-81
2023/09/07 09:24:32;;;;;;;13.73;9.40;;;22.10;28.30;;;;;;5129024;27;46902;-81
2023/09/07 09:26:58;;;;;;;13.67;10.50;;;22.20;27.80;;;;;;5127907;27;46641;-80
2023/09/07 09:29:23;;;;;;;14.23;9.70;;;22.20;27.80;;;;;;5128509;27;47684;-80
2023/09/07 09:31:50;;;;;;;13.77;7.87;;;22.20;27.30;;;;;;5128914;27;46546;-83
2023/09/07 09:34:17;;;;;;;13.87;9.30;;;22.20;27.90;;;;;;5129438;27;46533;-80
2023/09/07 09:36:43;;;;;;;11.70;8.27;;;22.50;27.70;;;;;;5132394;27;46837;-82
2023/09/07 09:39:09;;;;;;;14.37;8.90;;;22.50;27.10;;;;;;5130970;27;46906;-82
2023/09/07 09:41:36;;;;;;;11.50;7.67;;;22.70;26.00;;;;;;5129424;27;46916;-79
2023/09/07 09:44:06;;;;;;;11.80;7.80;;;22.70;26.70;;;;;;5126666;27;47034;-81
2023/09/07 09:46:32;;;;;;;14.30;9.40;;;22.80;26.20;;;;;;5128747;27;47233;-79
2023/09/07 09:48:58;;;;;;;13.27;9.37;;;22.90;26.60;;;;;;5125051;27;47459;-80
2023/09/07 09:51:24;;;;;;;10.47;8.60;;;22.70;25.70;;;;;;5130037;27;45861;-80
2023/09/07 09:53:53;;;;;;;19.30;9.03;;;22.70;24.80;;;;;;5129416;27;46547;-80
2023/09/07 09:56:20;;;;;;;12.10;8.83;;;22.80;25.90;;;;;;5127765;27;46420;-80
2023/09/07 09:58:45;;;;;;;11.60;8.50;;;22.80;26.00;;;;;;5128231;27;47348;-80
2023/09/07 10:01:14;;;;;;;12.60;7.70;;;22.90;26.00;;;;;;5125263;27;46438;-80
2023/09/07 10:03:47;;;;;;;12.37;7.60;;;22.80;24.80;;;;;;5122254;27;46527;-80
2023/09/07 10:06:20;;;;;;;9.73;6.20;;;23.00;25.70;;;;;;5117827;27;46775;-81
2023/09/07 10:09:03;;;;;;;8.97;6.43;;;23.20;24.70;;;;;;5109598;27;48488;-81
2023/09/07 10:11:37;;;;;;;16.13;8.73;;;23.40;24.60;;;;;;5109310;27;46445;-80
2023/09/07 10:14:04;;;;;;;11.20;6.77;;;23.40;23.90;;;;;;5123265;27;46725;-80
2023/09/07 10:16:44;;;;;;;11.93;7.87;;;23.40;23.80;;;;;;5123031;27;46977;-79
2023/09/07 10:19:16;;;;;;;11.03;7.17;;;23.40;23.50;;;;;;5125248;27;48518;-79
2023/09/07 10:21:42;;;;;;;10.30;7.30;;;23.50;22.30;;;;;;5126589;27;46657;-81
2023/09/07 10:24:08;;;;;;;15.07;7.77;;;23.60;23.10;;;;;;5128018;27;46480;-80
2023/09/07 10:26:33;;;;;;;9.93;7.00;;;23.70;22.70;;;;;;5128380;27;46811;-80
2023/09/07 10:29:03;;;;;;;9.83;7.13;;;23.60;22.70;;;;;;5124465;27;46919;-80
2023/09/07 10:31:33;;;;;;;12.33;6.20;;;23.80;22.70;;;;;;5127659;27;46496;-82
2023/09/07 10:34:12;;;;;;;13.53;8.10;;;23.90;21.80;;;;;;5128889;27;46491;-79
2023/09/07 10:36:38;;;;;;;11.57;7.53;;;24.00;22.50;;;;;;5107517;27;46545;-82
2023/09/07 10:39:07;;;;;;;14.60;8.33;;;24.20;22.70;;;;;;5127616;27;46712;-81
2023/09/07 10:41:43;;;;;;;12.13;7.83;;;24.30;21.60;;;;;;5124394;27;46538;-80
2023/09/07 10:44:10;;;;;;;12.37;7.20;;;25.00;22.70;;;;;;5115827;27;46434;-82
2023/09/07 10:46:37;;;;;;;10.37;7.60;;;24.40;22.00;;;;;;5125346;27;47233;-79
2023/09/07 10:49:06;;;;;;;12.83;8.00;;;24.20;21.90;;;;;;5125095;27;46512;-83
2023/09/07 10:51:39;;;;;;;20.70;7.23;;;24.10;22.00;;;;;;5124227;27;46492;-80
2023/09/07 10:54:14;;;;;;;10.93;6.37;;;24.20;21.20;;;;;;5110410;27;46737;-80
2023/09/07 10:56:39;;;;;;;10.43;6.57;;;24.50;21.60;;;;;;5125695;27;46676;-81
2023/09/07 10:59:05;;;;;;;13.93;8.17;;;24.60;21.10;;;;;;5127072;27;46997;-80
2023/09/07 11:01:31;;;;;;;10.50;6.70;;;24.60;20.40;;;;;;5124256;27;46185;-79
2023/09/07 11:03:56;;;;;;;8.77;6.30;;;24.60;20.80;;;;;;5124396;27;46845;-81
2023/09/07 11:06:22;;;;;;;9.40;6.20;;;24.70;20.60;;;;;;5126345;27;46554;-82
2023/09/07 11:08:48;;;;;;;9.50;6.10;;;24.60;20.50;;;;;;5126156;27;46777;-82
2023/09/07 11:11:14;;;;;;;20.23;5.90;;;24.60;20.50;;;;;;5126148;27;46545;-80
2023/09/07 11:13:39;;;;;;;10.00;6.03;;;24.70;20.20;;;;;;5128348;27;46966;-81
2023/09/07 11:16:08;;;;;;;11.80;7.00;;;24.70;19.80;;;;;;5124531;27;46809;-80
2023/09/07 11:18:37;;;;;;;9.93;6.50;;;24.60;19.50;;;;;;5129530;27;46420;-83
2023/09/07 11:21:07;;;;;;;9.07;6.50;;;24.70;19.90;;;;;;5130669;27;46965;-83
2023/09/07 11:23:39;;;;;;;8.67;6.20;;;24.50;20.00;;;;;;5129007;27;46584;-83
2023/09/07 11:26:05;;;;;;;14.90;6.57;;;24.60;20.10;;;;;;5130452;27;46496;-79
2023/09/07 11:28:31;;;;;;;9.43;6.47;;;24.70;20.00;;;;;;5129299;27;47247;-81
2023/09/07 11:30:59;;;;;;;10.13;6.07;;;24.60;20.20;;;;;;5131424;27;45889;-81
2023/09/07 11:33:25;;;;;;;17.70;7.20;;;24.60;20.10;;;;;;5131005;27;46440;-80
2023/09/07 11:35:51;;;;;;;8.23;6.27;;;24.60;20.00;;;;;;5128311;27;46377;-80
2023/09/07 11:38:17;;;;;;;11.50;7.13;;;24.60;20.00;;;;;;5130244;27;46516;-79
2023/09/07 11:40:47;;;;;;;10.27;7.17;;;24.70;20.10;;;;;;5130407;27;46488;-80
2023/09/07 11:43:13;;;;;;;13.13;6.70;;;24.70;20.00;;;;;;5130024;27;46465;-78
2023/09/07 11:45:40;;;;;;;15.80;6.10;;;24.90;20.00;;;;;;5126638;27;46871;-79
2023/09/07 11:48:08;;;;;;;14.80;5.93;;;24.80;19.70;;;;;;5108985;27;48034;-80
2023/09/07 11:50:34;;;;;;;9.47;6.20;;;24.80;19.50;;;;;;5125925;27;46495;-79
2023/09/07 11:53:00;;;;;;;14.13;7.10;;;24.80;18.30;;;;;;5113941;27;46524;-81
2023/09/07 11:55:26;;;;;;;8.40;6.73;;;24.80;19.20;;;;;;5125468;27;46427;-79
2023/09/07 11:57:51;;;;;;;10.47;5.90;;;25.00;19.20;;;;;;5128693;27;47006;-78
2023/09/07 12:00:17;;;;;;;13.10;6.40;;;24.80;19.20;;;;;;5128595;27;46489;-79
2023/09/07 12:02:43;;;;;;;9.70;5.80;;;25.10;18.30;;;;;;5108367;27;46494;-81
2023/09/07 12:05:09;;;;;;;13.57;6.10;;;25.10;18.90;;;;;;5129779;27;46449;-81
2023/09/07 12:07:38;;;;;;;17.13;5.63;;;25.20;18.60;;;;;;5127937;27;46502;-78
2023/09/07 12:10:04;;;;;;;9.93;5.80;;;25.70;18.50;;;;;;5128085;27;47358;-79
2023/09/07 12:12:30;;;;;;;9.27;7.00;;;25.20;16.70;;;;;;5126265;27;46813;-80
2023/09/07 12:14:56;;;;;;;9.23;6.23;;;25.30;17.60;;;;;;5127743;27;46447;-81
2023/09/07 12:17:22;;;;;;;9.10;5.70;;;25.20;17.40;;;;;;5125750;27;47040;-79
2023/09/07 12:19:49;;;;;;;10.97;5.90;;;25.20;17.40;;;;;;5126552;27;46475;-82
2023/09/07 12:22:14;;;;;;;11.13;6.63;;;25.10;17.50;;;;;;5128963;27;46461;-83
2023/09/07 12:24:40;;;;;;;10.03;5.50;;;25.20;17.60;;;;;;5127517;27;46766;-82
2023/09/07 12:27:06;;;;;;;8.10;5.80;;;25.20;17.50;;;;;;5127484;27;47533;-81
2023/09/07 12:29:31;;;;;;;29.27;6.07;;;25.30;17.30;;;;;;5125730;27;46504;-84
2023/09/07 12:31:57;;;;;;;7.80;5.30;;;25.30;17.10;;;;;;5110819;27;45844;-83
2023/09/07 12:34:23;;;;;;;8.63;5.80;;;25.30;17.10;;;;;;5108295;27;46519;-84